createdAt,value
2023-03-20T00:00:13.527Z,815.33
2023-03-20T00:01:13.521Z,815.37
2023-03-20T00:02:13.566Z,815.33
2023-03-20T00:03:13.560Z,815.35
2023-03-20T00:04:13.695Z,815.38
2023-03-20T00:05:13.551Z,815.38
2023-03-20T00:06:13.558Z,815.42
2023-03-20T00:07:13.553Z,815.41
2023-03-20T00:08:13.575Z,815.44
2023-03-20T00:09:13.569Z,815.43
2023-03-20T00:10:13.582Z,815.46
2023-03-20T00:11:13.577Z,815.44
2023-03-20T00:12:13.587Z,815.48
2023-03-20T00:13:13.590Z,815.47
2023-03-20T00:14:13.612Z,815.52
2023-03-20T00:15:13.600Z,815.48
2023-03-20T00:16:13.649Z,815.50
2023-03-20T00:17:13.609Z,815.46
2023-03-20T00:18:13.637Z,815.48
2023-03-20T00:19:13.638Z,815.50
2023-03-20T00:20:13.653Z,815.50
2023-03-20T00:21:13.635Z,815.49
2023-03-20T00:22:13.636Z,815.49
2023-03-20T00:23:13.642Z,815.49
2023-03-20T00:24:13.657Z,815.49
2023-03-20T00:25:13.702Z,815.50
2023-03-20T00:26:13.693Z,815.51
2023-03-20T00:27:13.669Z,815.50
2023-03-20T00:28:13.676Z,815.47
2023-03-20T00:29:13.675Z,815.50
2023-03-20T00:30:13.689Z,815.48
2023-03-20T00:31:13.734Z,815.48
2023-03-20T00:32:13.714Z,815.51
2023-03-20T00:33:13.776Z,815.48
2023-03-20T00:34:13.722Z,815.42
2023-03-20T00:35:13.731Z,815.46
2023-03-20T00:36:13.786Z,815.46
2023-03-20T00:37:13.733Z,815.43
2023-03-20T00:38:13.736Z,815.42
2023-03-20T00:39:13.730Z,815.39
2023-03-20T00:40:13.740Z,815.43
2023-03-20T00:41:13.746Z,815.40
2023-03-20T00:42:13.753Z,815.40
2023-03-20T00:43:13.753Z,815.42
2023-03-20T00:44:13.766Z,815.43
2023-03-20T00:45:13.765Z,815.40
2023-03-20T00:46:13.821Z,815.39
2023-03-20T00:47:13.784Z,815.36
2023-03-20T00:48:13.804Z,815.40
2023-03-20T00:49:13.793Z,815.37
2023-03-20T00:50:13.797Z,815.40
2023-03-20T00:51:13.821Z,815.39
2023-03-20T00:52:13.807Z,815.39
2023-03-20T00:53:13.821Z,815.40
2023-03-20T00:54:13.818Z,815.41
2023-03-20T00:55:13.821Z,815.37
2023-03-20T00:56:13.841Z,815.39
2023-03-20T00:57:13.841Z,815.41
2023-03-20T00:58:13.841Z,815.45
2023-03-20T00:59:13.847Z,815.42
2023-03-20T01:00:13.850Z,815.42
2023-03-20T01:01:13.879Z,815.40
2023-03-20T01:02:13.949Z,815.40
2023-03-20T01:03:13.868Z,815.39
2023-03-20T01:04:13.877Z,815.39
2023-03-20T01:05:13.878Z,815.36
2023-03-20T01:06:13.882Z,815.37
2023-03-20T01:07:13.909Z,815.35
2023-03-20T01:08:13.895Z,815.36
2023-03-20T01:09:13.899Z,815.32
2023-03-20T01:10:13.906Z,815.31
2023-03-20T01:11:13.924Z,815.31
2023-03-20T01:12:13.918Z,815.30
2023-03-20T01:13:13.918Z,815.30
2023-03-20T01:14:13.927Z,815.29
2023-03-20T01:15:13.926Z,815.26
2023-03-20T01:16:13.965Z,815.27
2023-03-20T01:17:13.936Z,815.29
2023-03-20T01:18:13.946Z,815.24
2023-03-20T01:19:13.949Z,815.27
2023-03-20T01:20:13.963Z,815.27
2023-03-20T01:21:13.959Z,815.26
2023-03-20T01:22:13.968Z,815.21
2023-03-20T01:23:13.997Z,815.17
2023-03-20T01:24:13.983Z,815.21
2023-03-20T01:25:13.980Z,815.21
2023-03-20T01:26:13.989Z,815.17
2023-03-20T01:27:13.995Z,815.19
2023-03-20T01:28:14.002Z,815.17
2023-03-20T01:29:14.003Z,815.11
2023-03-20T01:30:14.011Z,815.14
2023-03-20T01:31:14.012Z,815.10
2023-03-20T01:32:14.025Z,815.12
2023-03-20T01:33:14.078Z,815.06
2023-03-20T01:34:14.030Z,815.10
2023-03-20T01:35:14.035Z,815.09
2023-03-20T01:36:14.085Z,815.07
2023-03-20T01:37:14.054Z,815.07
2023-03-20T01:38:14.058Z,815.05
2023-03-20T01:39:14.075Z,815.09
2023-03-20T01:40:14.067Z,815.04
2023-03-20T01:41:14.068Z,815.04
2023-03-20T01:42:14.078Z,815.04
2023-03-20T01:43:14.082Z,815.00
2023-03-20T01:44:14.090Z,815.02
2023-03-20T01:45:14.091Z,815.03
2023-03-20T01:46:14.175Z,815.06
2023-03-20T01:47:14.118Z,815.03
2023-03-20T01:48:14.114Z,815.07
2023-03-20T01:49:14.116Z,815.05
2023-03-20T01:50:14.132Z,815.06
2023-03-20T01:51:14.125Z,815.09
2023-03-20T01:52:14.136Z,815.11
2023-03-20T01:53:14.135Z,815.13
2023-03-20T01:54:14.149Z,815.13
2023-03-20T01:55:14.171Z,815.09
2023-03-20T01:56:14.157Z,815.11
2023-03-20T01:57:14.162Z,815.15
2023-03-20T01:58:14.170Z,815.12
2023-03-20T01:59:14.172Z,815.14
2023-03-20T02:00:14.180Z,815.09
2023-03-20T02:01:14.192Z,815.06
2023-03-20T02:02:14.193Z,815.07
2023-03-20T02:03:14.196Z,815.04
2023-03-20T02:04:14.207Z,815.03
2023-03-20T02:05:14.223Z,815.04
2023-03-20T02:06:14.214Z,815.08
2023-03-20T02:07:14.211Z,815.05
2023-03-20T02:08:14.225Z,815.08
2023-03-20T02:09:14.227Z,815.09
2023-03-20T02:10:14.235Z,815.06
2023-03-20T02:11:14.284Z,815.05
2023-03-20T02:12:14.246Z,815.03
2023-03-20T02:13:14.243Z,815.03
2023-03-20T02:14:14.252Z,815.06
2023-03-20T02:15:14.260Z,815.00
2023-03-20T02:16:14.263Z,815.03
2023-03-20T02:17:14.268Z,815.00
2023-03-20T02:18:14.275Z,815.03
2023-03-20T02:19:14.274Z,815.06
2023-03-20T02:20:14.290Z,815.04
2023-03-20T02:21:14.285Z,815.04
2023-03-20T02:22:14.297Z,815.07
2023-03-20T02:23:14.297Z,815.10
2023-03-20T02:24:14.307Z,815.09
2023-03-20T02:25:14.307Z,815.11
2023-03-20T02:26:14.320Z,815.11
2023-03-20T02:27:14.356Z,815.10
2023-03-20T02:28:14.328Z,815.11
2023-03-20T02:29:14.330Z,815.09
2023-03-20T02:30:14.349Z,815.06
2023-03-20T02:31:14.420Z,815.07
2023-03-20T02:32:14.349Z,815.05
2023-03-20T02:33:14.374Z,815.07
2023-03-20T02:34:14.357Z,815.09
2023-03-20T02:35:14.362Z,815.10
2023-03-20T02:36:14.476Z,815.06
2023-03-20T02:37:14.373Z,815.07
2023-03-20T02:38:14.382Z,815.14
2023-03-20T02:39:14.382Z,815.08
2023-03-20T02:40:14.391Z,815.12
2023-03-20T02:41:14.408Z,815.11
2023-03-20T02:42:14.409Z,815.12
2023-03-20T02:43:14.423Z,815.12
2023-03-20T02:44:14.411Z,815.09
2023-03-20T02:45:14.418Z,815.10
2023-03-20T02:46:14.527Z,815.10
2023-03-20T02:47:14.429Z,815.04
2023-03-20T02:48:14.433Z,815.11
2023-03-20T02:49:14.435Z,815.10
2023-03-20T02:50:14.461Z,815.10
2023-03-20T02:51:14.447Z,815.04
2023-03-20T02:52:14.458Z,815.04
2023-03-20T02:53:14.463Z,815.12
2023-03-20T02:54:14.475Z,815.09
2023-03-20T02:55:14.471Z,815.08
2023-03-20T02:56:14.499Z,815.07
2023-03-20T02:57:14.489Z,815.09
2023-03-20T02:58:14.504Z,815.07
2023-03-20T02:59:14.512Z,815.05
2023-03-20T03:00:14.500Z,815.10
2023-03-20T03:01:14.586Z,815.07
2023-03-20T03:02:14.575Z,815.07
2023-03-20T03:03:14.518Z,815.09
2023-03-20T03:04:14.528Z,815.08
2023-03-20T03:05:14.530Z,815.08
2023-03-20T03:06:14.576Z,815.09
2023-03-20T03:07:14.536Z,815.07
2023-03-20T03:08:14.550Z,815.06
2023-03-20T03:09:17.264Z,815.03
2023-03-20T03:10:14.559Z,815.05
2023-03-20T03:11:14.569Z,815.01
2023-03-20T03:12:14.570Z,815.00
2023-03-20T03:13:14.570Z,814.98
2023-03-20T03:14:14.592Z,815.02
2023-03-20T03:15:14.596Z,815.02
2023-03-20T03:16:14.595Z,815.00
2023-03-20T03:17:14.594Z,815.01
2023-03-20T03:18:14.610Z,815.01
2023-03-20T03:19:14.608Z,815.05
2023-03-20T03:20:14.623Z,815.06
2023-03-20T03:21:14.616Z,815.04
2023-03-20T03:22:14.632Z,815.04
2023-03-20T03:23:14.624Z,815.05
2023-03-20T03:24:14.631Z,815.05
2023-03-20T03:25:14.642Z,815.10
2023-03-20T03:26:14.672Z,815.05
2023-03-20T03:27:14.647Z,815.08
2023-03-20T03:28:14.658Z,815.02
2023-03-20T03:29:14.655Z,814.96
2023-03-20T03:30:14.684Z,814.97
2023-03-20T03:31:14.702Z,815.00
2023-03-20T03:32:14.676Z,815.00
2023-03-20T03:33:14.835Z,815.04
2023-03-20T03:34:14.706Z,815.03
2023-03-20T03:35:14.692Z,815.07
2023-03-20T03:36:14.729Z,815.01
2023-03-20T03:37:14.698Z,815.03
2023-03-20T03:38:14.709Z,815.02
2023-03-20T03:39:14.710Z,815.02
2023-03-20T03:40:14.720Z,815.03
2023-03-20T03:41:14.743Z,815.05
2023-03-20T03:42:14.740Z,815.06
2023-03-20T03:43:14.730Z,815.04
2023-03-20T03:44:14.754Z,815.09
2023-03-20T03:45:14.752Z,815.04
2023-03-20T03:46:14.764Z,815.07
2023-03-20T03:47:14.770Z,815.11
2023-03-20T03:48:14.762Z,815.09
2023-03-20T03:49:14.774Z,815.02
2023-03-20T03:50:14.770Z,815.04
2023-03-20T03:51:14.785Z,815.11
2023-03-20T03:52:14.786Z,815.06
2023-03-20T03:53:14.788Z,815.04
2023-03-20T03:54:14.798Z,815.06
2023-03-20T03:55:14.793Z,815.07
2023-03-20T03:56:14.848Z,815.08
2023-03-20T03:57:14.812Z,815.08
2023-03-20T03:58:14.819Z,815.06
2023-03-20T03:59:14.829Z,815.06
2023-03-20T04:00:14.826Z,815.06
2023-03-20T04:01:14.833Z,815.09
2023-03-20T04:02:14.896Z,815.16
2023-03-20T04:03:14.867Z,815.13
2023-03-20T04:04:14.940Z,815.14
2023-03-20T04:05:14.851Z,815.16
2023-03-20T04:06:14.877Z,815.13
2023-03-20T04:07:14.869Z,815.16
2023-03-20T04:08:14.871Z,815.20
2023-03-20T04:09:14.874Z,815.22
2023-03-20T04:10:14.888Z,815.23
2023-03-20T04:11:14.889Z,815.22
2023-03-20T04:12:14.894Z,815.25
2023-03-20T04:13:14.900Z,815.21
2023-03-20T04:14:14.905Z,815.23
2023-03-20T04:15:14.911Z,815.25
2023-03-20T04:16:14.969Z,815.21
2023-03-20T04:17:14.922Z,815.27
2023-03-20T04:18:14.925Z,815.28
2023-03-20T04:19:14.966Z,815.25
2023-03-20T04:20:14.977Z,815.28
2023-03-20T04:21:14.979Z,815.30
2023-03-20T04:22:14.958Z,815.29
2023-03-20T04:23:14.975Z,815.33
2023-03-20T04:24:14.958Z,815.34
2023-03-20T04:25:14.972Z,815.38
2023-03-20T04:26:14.989Z,815.41
2023-03-20T04:27:14.989Z,815.39
2023-03-20T04:28:14.982Z,815.38
2023-03-20T04:29:14.990Z,815.41
2023-03-20T04:30:14.990Z,815.38
2023-03-20T04:31:15.044Z,815.41
2023-03-20T04:32:15.001Z,815.43
2023-03-20T04:33:15.117Z,815.45
2023-03-20T04:34:15.025Z,815.48
2023-03-20T04:35:15.078Z,815.48
2023-03-20T04:36:15.122Z,815.47
2023-03-20T04:37:15.031Z,815.49
2023-03-20T04:38:15.034Z,815.47
2023-03-20T04:39:15.041Z,815.47
2023-03-20T04:40:15.045Z,815.49
2023-03-20T04:41:15.056Z,815.55
2023-03-20T04:42:15.078Z,815.51
2023-03-20T04:43:15.061Z,815.50
2023-03-20T04:44:15.072Z,815.50
2023-03-20T04:45:15.078Z,815.56
2023-03-20T04:46:15.106Z,815.49
2023-03-20T04:47:15.085Z,815.57
2023-03-20T04:48:15.095Z,815.59
2023-03-20T04:49:15.095Z,815.54
2023-03-20T04:50:15.146Z,815.55
2023-03-20T04:51:15.130Z,815.54
2023-03-20T04:52:15.109Z,815.61
2023-03-20T04:53:15.121Z,815.57
2023-03-20T04:54:15.127Z,815.65
2023-03-20T04:55:15.143Z,815.61
2023-03-20T04:56:15.157Z,815.63
2023-03-20T04:57:15.142Z,815.61
2023-03-20T04:58:15.144Z,815.58
2023-03-20T04:59:15.151Z,815.64
2023-03-20T05:00:15.152Z,815.61
2023-03-20T05:01:15.214Z,815.55
2023-03-20T05:02:15.204Z,815.58
2023-03-20T05:03:15.174Z,815.56
2023-03-20T05:04:15.211Z,815.55
2023-03-20T05:05:15.188Z,815.56
2023-03-20T05:06:15.191Z,815.56
2023-03-20T05:07:15.215Z,815.52
2023-03-20T05:08:15.195Z,815.51
2023-03-20T05:09:15.206Z,815.48
2023-03-20T05:10:15.215Z,815.48
2023-03-20T05:11:15.218Z,815.46
2023-03-20T05:12:15.219Z,815.49
2023-03-20T05:13:15.228Z,815.47
2023-03-20T05:14:15.227Z,815.50
2023-03-20T05:15:15.241Z,815.48
2023-03-20T05:16:15.301Z,815.47
2023-03-20T05:17:15.247Z,815.50
2023-03-20T05:18:15.252Z,815.51
2023-03-20T05:19:15.298Z,815.47
2023-03-20T05:20:15.257Z,815.46
2023-03-20T05:21:15.269Z,815.48
2023-03-20T05:22:15.278Z,815.51
2023-03-20T05:23:15.298Z,815.48
2023-03-20T05:24:15.277Z,815.52
2023-03-20T05:25:15.295Z,815.49
2023-03-20T05:26:15.290Z,815.48
2023-03-20T05:27:15.303Z,815.48
2023-03-20T05:28:15.298Z,815.49
2023-03-20T05:29:15.310Z,815.47
2023-03-20T05:30:15.318Z,815.49
2023-03-20T05:31:15.425Z,815.52
2023-03-20T05:32:15.320Z,815.55
2023-03-20T05:33:15.448Z,815.48
2023-03-20T05:34:15.331Z,815.50
2023-03-20T05:35:15.350Z,815.45
2023-03-20T05:36:15.419Z,815.41
2023-03-20T05:37:15.356Z,815.45
2023-03-20T05:38:15.352Z,815.43
2023-03-20T05:39:15.397Z,815.36
2023-03-20T05:40:15.361Z,815.37
2023-03-20T05:41:15.369Z,815.40
2023-03-20T05:42:15.375Z,815.43
2023-03-20T05:43:15.376Z,815.33
2023-03-20T05:44:15.390Z,815.37
2023-03-20T05:45:15.388Z,815.37
2023-03-20T05:46:15.451Z,815.38
2023-03-20T05:47:15.404Z,815.37
2023-03-20T05:48:15.401Z,815.37
2023-03-20T05:49:15.408Z,815.40
2023-03-20T05:50:15.417Z,815.44
2023-03-20T05:51:15.427Z,815.40
2023-03-20T05:52:15.422Z,815.40
2023-03-20T05:53:15.430Z,815.40
2023-03-20T05:54:15.451Z,815.42
2023-03-20T05:55:15.455Z,815.42
2023-03-20T05:56:15.448Z,815.42
2023-03-20T05:57:15.452Z,815.43
2023-03-20T05:58:15.457Z,815.46
2023-03-20T05:59:15.491Z,815.46
2023-03-20T06:00:15.462Z,815.48
2023-03-20T06:01:15.473Z,815.46
2023-03-20T06:02:15.523Z,815.46
2023-03-20T06:03:15.553Z,815.49
2023-03-20T06:04:15.486Z,815.47
2023-03-20T06:05:15.490Z,815.51
2023-03-20T06:06:15.492Z,815.51
2023-03-20T06:07:15.500Z,815.50
2023-03-20T06:08:15.502Z,815.55
2023-03-20T06:09:15.511Z,815.53
2023-03-20T06:10:15.528Z,815.56
2023-03-20T06:11:15.550Z,815.56
2023-03-20T06:12:15.528Z,815.61
2023-03-20T06:13:15.533Z,815.53
2023-03-20T06:14:15.544Z,815.53
2023-03-20T06:15:15.559Z,815.56
2023-03-20T06:16:15.618Z,815.54
2023-03-20T06:17:15.561Z,815.56
2023-03-20T06:18:15.554Z,815.55
2023-03-20T06:19:15.570Z,815.55
2023-03-20T06:20:15.577Z,815.55
2023-03-20T06:21:15.580Z,815.54
2023-03-20T06:22:15.574Z,815.60
2023-03-20T06:23:15.593Z,815.58
2023-03-20T06:24:15.584Z,815.57
2023-03-20T06:25:15.602Z,815.56
2023-03-20T06:26:15.596Z,815.57
2023-03-20T06:27:15.624Z,815.58
2023-03-20T06:28:15.606Z,815.59
2023-03-20T06:29:15.620Z,815.59
2023-03-20T06:30:15.631Z,815.59
2023-03-20T06:31:15.675Z,815.58
2023-03-20T06:32:15.629Z,815.64
2023-03-20T06:33:15.665Z,815.67
2023-03-20T06:34:15.637Z,815.67
2023-03-20T06:35:15.642Z,815.73
2023-03-20T06:36:15.662Z,815.72
2023-03-20T06:37:15.656Z,815.77
2023-03-20T06:38:15.658Z,815.78
2023-03-20T06:39:15.666Z,815.74
2023-03-20T06:40:15.669Z,815.77
2023-03-20T06:41:24.538Z,815.77
2023-03-20T06:42:16.308Z,815.77
2023-03-20T06:43:15.716Z,815.75
2023-03-20T06:44:15.686Z,815.73
2023-03-20T06:45:15.700Z,815.72
2023-03-20T06:46:15.745Z,815.74
2023-03-20T06:47:15.712Z,815.70
2023-03-20T06:48:15.709Z,815.70
2023-03-20T06:49:15.717Z,815.72
2023-03-20T06:50:15.733Z,815.75
2023-03-20T06:51:15.752Z,815.78
2023-03-20T06:52:15.731Z,815.82
2023-03-20T06:53:15.741Z,815.83
2023-03-20T06:54:15.743Z,815.84
2023-03-20T06:55:15.761Z,815.87
2023-03-20T06:56:15.773Z,815.90
2023-03-20T06:57:15.761Z,815.93
2023-03-20T06:58:15.776Z,815.98
2023-03-20T06:59:15.793Z,815.99
2023-03-20T07:00:15.771Z,815.99
2023-03-20T07:01:15.790Z,816.00
2023-03-20T07:02:15.786Z,815.99
2023-03-20T07:03:15.793Z,815.98
2023-03-20T07:04:15.796Z,815.98
2023-03-20T07:05:15.926Z,815.95
2023-03-20T07:06:15.814Z,815.95
2023-03-20T07:07:15.819Z,815.93
2023-03-20T07:08:15.830Z,815.96
2023-03-20T07:09:15.896Z,815.98
2023-03-20T07:10:15.834Z,815.99
2023-03-20T07:11:15.843Z,815.99
2023-03-20T07:12:15.855Z,815.99
2023-03-20T07:13:15.852Z,815.99
2023-03-20T07:14:15.872Z,815.99
2023-03-20T07:15:15.896Z,816.03
2023-03-20T07:16:15.897Z,816.01
2023-03-20T07:17:15.877Z,816.05
2023-03-20T07:18:15.878Z,816.06
2023-03-20T07:19:15.887Z,816.06
2023-03-20T07:20:15.891Z,816.04
2023-03-20T07:21:15.914Z,816.02
2023-03-20T07:22:15.905Z,816.07
2023-03-20T07:23:15.913Z,816.07
2023-03-20T07:24:15.915Z,816.07
2023-03-20T07:25:15.921Z,816.07
2023-03-20T07:26:15.926Z,816.03
2023-03-20T07:27:15.932Z,816.08
2023-03-20T07:28:15.945Z,816.12
2023-03-20T07:29:15.948Z,816.13
2023-03-20T07:30:15.952Z,816.15
2023-03-20T07:31:16.031Z,816.19
2023-03-20T07:32:15.971Z,816.19
2023-03-20T07:33:15.993Z,816.13
2023-03-20T07:34:15.974Z,816.18
2023-03-20T07:35:15.978Z,816.17
2023-03-20T07:36:15.985Z,816.17
2023-03-20T07:37:15.994Z,816.19
2023-03-20T07:38:15.999Z,816.20
2023-03-20T07:39:16.012Z,816.22
2023-03-20T07:40:16.007Z,816.16
2023-03-20T07:41:16.018Z,816.14
2023-03-20T07:42:16.020Z,816.13
2023-03-20T07:43:16.032Z,816.11
2023-03-20T07:44:16.032Z,816.13
2023-03-20T07:45:16.042Z,816.11
2023-03-20T07:46:16.123Z,816.11
2023-03-20T07:47:16.117Z,816.09
2023-03-20T07:48:16.063Z,816.07
2023-03-20T07:49:16.107Z,816.06
2023-03-20T07:50:16.086Z,816.09
2023-03-20T07:51:16.104Z,816.08
2023-03-20T07:52:16.077Z,816.10
2023-03-20T07:53:16.100Z,816.11
2023-03-20T07:54:16.093Z,816.11
2023-03-20T07:55:18.378Z,816.14
2023-03-20T07:56:16.105Z,816.09
2023-03-20T07:57:16.121Z,816.11
2023-03-20T07:58:16.112Z,816.08
2023-03-20T07:59:16.118Z,816.08
2023-03-20T08:00:16.124Z,816.08
2023-03-20T08:01:16.132Z,816.07
2023-03-20T08:02:16.135Z,816.11
2023-03-20T08:03:16.298Z,816.10
2023-03-20T08:04:16.183Z,816.10
2023-03-20T08:05:16.154Z,816.12
2023-03-20T08:06:16.157Z,816.09
2023-03-20T08:07:16.185Z,816.10
2023-03-20T08:08:16.183Z,816.10
2023-03-20T08:09:16.182Z,816.12
2023-03-20T08:10:16.183Z,816.12
2023-03-20T08:11:16.195Z,816.13
2023-03-20T08:12:16.197Z,816.14
2023-03-20T08:13:16.202Z,816.11
2023-03-20T08:14:16.208Z,816.13
2023-03-20T08:15:16.219Z,816.11
2023-03-20T08:16:16.267Z,816.15
2023-03-20T08:17:19.403Z,816.15
2023-03-20T08:18:16.233Z,816.16
2023-03-20T08:19:16.270Z,816.18
2023-03-20T08:20:16.249Z,816.15
2023-03-20T08:21:16.277Z,816.16
2023-03-20T08:22:16.262Z,816.20
2023-03-20T08:23:16.580Z,816.16
2023-03-20T08:24:16.288Z,816.14
2023-03-20T08:25:16.283Z,816.15
2023-03-20T08:26:16.286Z,816.17
2023-03-20T08:27:16.295Z,816.12
2023-03-20T08:28:16.306Z,816.19
2023-03-20T08:29:16.305Z,816.19
2023-03-20T08:30:16.315Z,816.21
2023-03-20T08:31:16.460Z,816.21
2023-03-20T08:32:16.331Z,816.21
2023-03-20T08:33:16.397Z,816.24
2023-03-20T08:34:16.348Z,816.22
2023-03-20T08:35:31.907Z,816.24
2023-03-20T08:36:16.418Z,816.24
2023-03-20T08:37:16.354Z,816.25
2023-03-20T08:38:16.364Z,816.25
2023-03-20T08:39:16.398Z,816.21
2023-03-20T08:40:16.378Z,816.20
2023-03-20T08:41:16.382Z,816.23
2023-03-20T08:42:16.404Z,816.24
2023-03-20T08:43:16.407Z,816.21
2023-03-20T08:44:16.423Z,816.22
2023-03-20T08:45:16.406Z,816.24
2023-03-20T08:46:16.558Z,816.26
2023-03-20T08:47:16.426Z,816.26
2023-03-20T08:48:16.430Z,816.22
2023-03-20T08:49:16.431Z,816.23
2023-03-20T08:50:16.441Z,816.21
2023-03-20T08:51:16.494Z,816.22
2023-03-20T08:52:16.452Z,816.25
2023-03-20T08:53:16.583Z,816.21
2023-03-20T08:54:16.467Z,816.21
2023-03-20T08:55:16.478Z,816.19
2023-03-20T08:56:16.479Z,816.25
2023-03-20T08:57:16.503Z,816.21
2023-03-20T08:58:16.502Z,816.24
2023-03-20T08:59:16.504Z,816.24
2023-03-20T09:00:16.511Z,816.21
2023-03-20T09:01:16.563Z,816.23
2023-03-20T09:02:16.659Z,816.25
2023-03-20T09:03:16.599Z,816.19
2023-03-20T09:04:16.542Z,816.22
2023-03-20T09:05:16.533Z,816.25
2023-03-20T09:06:16.544Z,816.29
2023-03-20T09:07:16.608Z,816.29
2023-03-20T09:08:16.599Z,816.26
2023-03-20T09:09:16.564Z,816.28
2023-03-20T09:10:16.577Z,816.30
2023-03-20T09:11:16.582Z,816.27
2023-03-20T09:12:16.587Z,816.26
2023-03-20T09:13:26.842Z,816.24
2023-03-20T09:14:16.608Z,816.27
2023-03-20T09:15:16.613Z,816.32
2023-03-20T09:16:16.650Z,816.28
2023-03-20T09:17:16.629Z,816.27
2023-03-20T09:18:16.637Z,816.31
2023-03-20T09:19:16.632Z,816.28
2023-03-20T09:20:16.642Z,816.33
2023-03-20T09:21:16.643Z,816.31
2023-03-20T09:22:16.657Z,816.36
2023-03-20T09:23:16.679Z,816.38
2023-03-20T09:24:16.687Z,816.33
2023-03-20T09:25:16.702Z,816.35
2023-03-20T09:26:16.681Z,816.36
2023-03-20T09:27:16.702Z,816.35
2023-03-20T09:28:16.699Z,816.38
2023-03-20T09:29:16.704Z,816.34
2023-03-20T09:30:16.707Z,816.38
2023-03-20T09:31:16.739Z,816.37
2023-03-20T09:32:16.724Z,816.44
2023-03-20T09:33:16.808Z,816.44
2023-03-20T09:34:16.754Z,816.45
2023-03-20T09:35:16.739Z,816.44
2023-03-20T09:36:16.780Z,816.43
2023-03-20T09:37:16.755Z,816.47
2023-03-20T09:38:16.764Z,816.47
2023-03-20T09:39:16.789Z,816.47
2023-03-20T09:40:16.779Z,816.44
2023-03-20T09:41:16.784Z,816.46
2023-03-20T09:42:16.794Z,816.46
2023-03-20T09:43:16.794Z,816.49
2023-03-20T09:44:16.813Z,816.44
2023-03-20T09:45:16.808Z,816.49
2023-03-20T09:46:16.851Z,816.51
2023-03-20T09:47:20.750Z,816.47
2023-03-20T09:48:16.840Z,816.48
2023-03-20T09:49:16.838Z,816.50
2023-03-20T09:50:16.853Z,816.48
2023-03-20T09:51:16.851Z,816.51
2023-03-20T09:52:16.863Z,816.60
2023-03-20T09:53:16.877Z,816.52
2023-03-20T09:54:16.877Z,816.55
2023-03-20T09:55:17.107Z,816.55
2023-03-20T09:56:16.894Z,816.56
2023-03-20T09:57:16.894Z,816.57
2023-03-20T09:58:16.904Z,816.56
2023-03-20T09:59:16.910Z,816.51
2023-03-20T10:00:16.919Z,816.53
2023-03-20T10:01:16.926Z,816.53
2023-03-20T10:02:17.020Z,816.52
2023-03-20T10:03:16.939Z,816.54
2023-03-20T10:04:16.989Z,816.52
2023-03-20T10:05:16.955Z,816.55
2023-03-20T10:06:16.970Z,816.57
2023-03-20T10:07:16.970Z,816.58
2023-03-20T10:08:17.055Z,816.57
2023-03-20T10:09:16.989Z,816.58
2023-03-20T10:10:16.995Z,816.61
2023-03-20T10:11:17.014Z,816.63
2023-03-20T10:12:17.009Z,816.62
2023-03-20T10:13:17.016Z,816.64
2023-03-20T10:14:17.029Z,816.64
2023-03-20T10:15:17.027Z,816.63
2023-03-20T10:16:17.059Z,816.62
2023-03-20T10:17:17.044Z,816.64
2023-03-20T10:18:17.059Z,816.67
2023-03-20T10:19:17.059Z,816.74
2023-03-20T10:20:17.070Z,816.66
2023-03-20T10:21:17.077Z,816.72
2023-03-20T10:22:17.088Z,816.70
2023-03-20T10:23:17.137Z,816.71
2023-03-20T10:24:17.105Z,816.64
2023-03-20T10:25:17.105Z,816.66
2023-03-20T10:26:17.132Z,816.68
2023-03-20T10:27:17.141Z,816.68
2023-03-20T10:28:17.134Z,816.60
2023-03-20T10:29:17.137Z,816.67
2023-03-20T10:30:17.150Z,816.60
2023-03-20T10:31:17.284Z,816.64
2023-03-20T10:32:17.172Z,816.65
2023-03-20T10:33:17.237Z,816.67
2023-03-20T10:34:17.182Z,816.65
2023-03-20T10:35:17.194Z,816.64
2023-03-20T10:36:17.197Z,816.66
2023-03-20T10:37:17.197Z,816.62
2023-03-20T10:38:17.212Z,816.62
2023-03-20T10:39:17.221Z,816.66
2023-03-20T10:40:17.227Z,816.68
2023-03-20T10:41:17.234Z,816.64
2023-03-20T10:42:17.244Z,816.62
2023-03-20T10:43:17.275Z,816.72
2023-03-20T10:44:17.261Z,816.71
2023-03-20T10:45:17.267Z,816.70
2023-03-20T10:46:17.457Z,816.69
2023-03-20T10:47:17.489Z,816.72
2023-03-20T10:48:17.297Z,816.69
2023-03-20T10:49:17.299Z,816.69
2023-03-20T10:50:17.310Z,816.64
2023-03-20T10:51:17.322Z,816.63
2023-03-20T10:52:17.325Z,816.68
2023-03-20T10:53:17.334Z,816.67
2023-03-20T10:54:17.371Z,816.65
2023-03-20T10:55:17.349Z,816.66
2023-03-20T10:56:17.361Z,816.69
2023-03-20T10:57:17.363Z,816.68
2023-03-20T10:58:17.392Z,816.66
2023-03-20T10:59:17.416Z,816.64
2023-03-20T11:00:17.401Z,816.61
2023-03-20T11:01:17.428Z,816.64
2023-03-20T11:02:17.410Z,816.67
2023-03-20T11:03:17.482Z,816.62
2023-03-20T11:04:17.579Z,816.62
2023-03-20T11:05:17.456Z,816.56
2023-03-20T11:06:17.453Z,816.51
2023-03-20T11:07:17.450Z,816.50
2023-03-20T11:08:17.468Z,816.52
2023-03-20T11:09:17.467Z,816.47
2023-03-20T11:10:17.577Z,816.47
2023-03-20T11:11:17.483Z,816.51
2023-03-20T11:12:17.494Z,816.55
2023-03-20T11:13:17.516Z,816.49
2023-03-20T11:14:17.510Z,816.50
2023-03-20T11:15:17.537Z,816.52
2023-03-20T11:16:17.534Z,816.48
2023-03-20T11:17:17.534Z,816.49
2023-03-20T11:18:17.546Z,816.49
2023-03-20T11:19:17.572Z,816.52
2023-03-20T11:20:17.565Z,816.52
2023-03-20T11:21:17.566Z,816.50
2023-03-20T11:22:17.579Z,816.53
2023-03-20T11:23:17.584Z,816.53
2023-03-20T11:24:17.595Z,816.51
2023-03-20T11:25:17.599Z,816.55
2023-03-20T11:26:17.611Z,816.52
2023-03-20T11:27:17.632Z,816.53
2023-03-20T11:28:17.631Z,816.54
2023-03-20T11:29:17.635Z,816.53
2023-03-20T11:30:17.828Z,816.53
2023-03-20T11:31:17.668Z,816.56
2023-03-20T11:32:17.689Z,816.54
2023-03-20T11:33:17.757Z,816.59
2023-03-20T11:34:17.684Z,816.54
2023-03-20T11:35:17.686Z,816.54
2023-03-20T11:36:17.703Z,816.60
2023-03-20T11:37:17.710Z,816.56
2023-03-20T11:38:17.714Z,816.59
2023-03-20T11:39:17.722Z,816.64
2023-03-20T11:40:17.729Z,816.58
2023-03-20T11:41:17.735Z,816.56
2023-03-20T11:42:17.745Z,816.52
2023-03-20T11:43:17.756Z,816.54
2023-03-20T11:44:17.762Z,816.57
2023-03-20T11:45:17.775Z,816.57
2023-03-20T11:46:17.808Z,816.56
2023-03-20T11:47:17.803Z,816.52
2023-03-20T11:48:17.817Z,816.54
2023-03-20T11:49:17.806Z,816.54
2023-03-20T11:50:17.818Z,816.56
2023-03-20T11:51:17.820Z,816.58
2023-03-20T11:52:17.836Z,816.57
2023-03-20T11:53:17.849Z,816.59
2023-03-20T11:54:17.855Z,816.58
2023-03-20T11:55:17.865Z,816.52
2023-03-20T11:56:17.879Z,816.55
2023-03-20T11:57:17.881Z,816.54
2023-03-20T11:58:17.909Z,816.53
2023-03-20T11:59:17.897Z,816.56
2023-03-20T12:00:17.915Z,816.52
2023-03-20T12:01:17.927Z,816.52
2023-03-20T12:02:17.971Z,816.55
2023-03-20T12:03:17.999Z,816.60
2023-03-20T12:04:17.960Z,816.49
2023-03-20T12:05:17.960Z,816.55
2023-03-20T12:06:17.978Z,816.56
2023-03-20T12:07:17.981Z,816.62
2023-03-20T12:08:18.009Z,816.59
2023-03-20T12:09:18.009Z,816.62
2023-03-20T12:10:18.011Z,816.62
2023-03-20T12:11:18.046Z,816.64
2023-03-20T12:12:18.031Z,816.60
2023-03-20T12:13:18.069Z,816.55
2023-03-20T12:14:18.050Z,816.61
2023-03-20T12:15:18.073Z,816.62
2023-03-20T12:16:18.130Z,816.66
2023-03-20T12:17:18.079Z,816.64
2023-03-20T12:18:18.092Z,816.64
2023-03-20T12:19:18.145Z,816.64
2023-03-20T12:20:18.109Z,816.67
2023-03-20T12:21:18.133Z,816.67
2023-03-20T12:22:18.153Z,816.62
2023-03-20T12:23:18.144Z,816.70
2023-03-20T12:24:18.151Z,816.62
2023-03-20T12:25:18.157Z,816.65
2023-03-20T12:26:18.168Z,816.72
2023-03-20T12:27:18.177Z,816.68
2023-03-20T12:28:18.206Z,816.68